Wake Forest, NC (27587)

10:35 AM EST on March 03, 2015 (GMT -0500)
KNCWAKEF7 | Change Station
CLOSE
Current Station
Personal Weather Station
Location: Wake Forest, NC
Elevation: 387 ft
Nearby Weather Stations

Elev 387 ft 36.00 °N, 78.51 °W | Updated 203 days ago

Cloudy
Cloudy
41 °F
Feels Like 38 °F
N
4
Wind Variable Wind from ESE
Gusts mph

Today
High -- | Low -- °F
--% Chance of Precip.
Yesterday
High -- | Low -- °F
Precip. -- in
6:41 AM 6:10 PM
Waxing Gibbous, 96% visible
Pressure 30.41 in
Visibility 10.0 miles
Clouds Overcast 4100 ft
Windchill 38 °F
Dew Point 25 °F
Humidity 53%
Rainfall 0.00 in
Snow Depth Not available.
UV 1 out of 12
Pollen 5.60 out of 12
Air Quality Not available.
Flu Activity Not available.
METAR KLHZ 031515Z AUTO 05004KT 10SM OVC041 01/M06 A3041 RMK AO2

More Conditions Fewer Conditions

Pressure 30.41 in
Visibility 10.0 miles
Clouds Overcast 4100 ft
Windchill 38 °F
Dew Point 25 °F
Humidity 53%
Rainfall 0.00 in
Snow Depth Not available.
UV 1 out of 12
Pollen 5.60 out of 12
Air Quality Not available.
Flu Activity Not available.
METAR KLHZ 031515Z AUTO 05004KT 10SM OVC041 01/M06 A3041 RMK AO2

More Conditions Fewer Conditions

10-Day Weather Forecast

Almanac

Astronomy

Mar. 03, 2015 Rise Set
Actual Time
Civil Twilight
Nautical Twilight
Astronomical Twilight
Moon
Length of Visible Light
Length of Day
Tomorrow will be .
, % of the Moon is Illuminated

Today's Extremes

State Highs State Lows

Community

WunderPhotos

Upload Photos

1,802,147 photos uploaded!

WunderBlogs® & News

Nearby

Air Quality

  Air Quality AQ Index Pollutant
Not available.

Snow Depth

Station Depth Elevation

Earthquake Activity

City Distance Mag. Time & Date
Minimum magnitude displayed is 2.5.

Coastal Water Temperatures

Place Temperature

Nearby Weather Stations